Terminal Aerodrome Forecast
Issued by NWS

Home | Current Version | Previous Version | Text Only | Print | Product List | Glossary On
Versions: 1 2 3 4 5 6 7 8 9 10 11 12 13 14 15 16 17 18 19
000
FTUS46 KSEW 010204 AAA
TAFBFI
TAF AMD
KBFI 010204Z 0102/0124 08005KT P6SM VCSH SCT030 BKN040 OVC060
      TEMPO 0102/0105 -SHRA BKN030 OVC040
     FM010500 13005KT P6SM SCT020 BKN030
     FM010900 15005KT P6SM SCT018 OVC120
     FM011500 15006KT P6SM -RA SCT012 BKN020 OVC035
     FM012000 19005KT P6SM SCT025 BKN035 OVC050=

USA.gov is the U.S. government's official web portal to all federal, state and local government web resources and services.